Time;durP1;ratioP1;P1;durP2;ratioP2;P2;SDS_P1;SDS_P2;PMS_P1;PMS_P2;Temp;Humidity;BMP_temperature;BMP_pressure;BME280_temperature;BME280_humidity;BME280_pressure;Samples;Min_cycle;Max_cycle;Signal;HPM_P1;HPM_P2
2021/11/17 02:27:19;;;;;;;43.00;22.20;;;;;;;7.38;100.00;101242.13;5036416;28;20085;-76
2021/11/17 02:29:53;;;;;;;40.95;23.33;;;;;;;7.38;100.00;101256.78;5025755;28;20072;-75
2021/11/17 02:32:21;;;;;;;43.30;23.58;;;;;;;7.41;100.00;101265.66;5029290;28;20117;-75
2021/11/17 02:34:59;;;;;;;42.25;22.70;;;;;;;7.41;100.00;101273.94;5035554;28;20107;-75
2021/11/17 02:37:40;;;;;;;43.33;22.75;;;;;;;7.44;100.00;101270.66;5049725;28;20389;-76
2021/11/17 02:40:27;;;;;;;44.45;23.17;;;;;;;7.45;100.00;101273.19;5040169;28;20033;-75
2021/11/17 02:42:56;;;;;;;48.88;24.60;;;;;;;7.48;100.00;101274.59;5033856;28;20552;-75
2021/11/17 02:45:49;;;;;;;43.10;22.27;;;;;;;7.49;100.00;101270.72;5038042;28;20501;-75
2021/11/17 02:48:53;;;;;;;42.03;22.00;;;;;;;7.50;100.00;101281.56;5024685;28;20100;-76
2021/11/17 02:51:33;;;;;;;38.35;22.17;;;;;;;7.54;100.00;101274.41;5024418;28;20038;-75
2021/11/17 02:54:18;;;;;;;39.40;21.75;;;;;;;7.54;100.00;101273.56;5036211;28;20034;-76
2021/11/17 02:57:19;;;;;;;38.13;21.48;;;;;;;7.55;100.00;101275.22;5027491;28;21578;-76
2021/11/17 02:59:59;;;;;;;43.17;21.08;;;;;;;7.57;100.00;101278.59;5026630;28;20121;-76
2021/11/17 03:02:37;;;;;;;36.95;20.83;;;;;;;7.59;100.00;101274.47;5043159;28;20393;-76
2021/11/17 03:05:19;;;;;;;36.47;21.08;;;;;;;7.59;100.00;101282.78;5034340;28;20490;-76
2021/11/17 03:08:09;;;;;;;42.60;19.95;;;;;;;7.61;100.00;101279.78;5036429;28;20056;-75
2021/11/17 03:10:42;;;;;;;38.65;19.27;;;;;;;7.62;100.00;101275.91;5031082;28;20041;-76
2021/11/17 03:13:19;;;;;;;;;;;;;;;7.64;100.00;101272.91;5031210;28;20038;-75
2021/11/17 03:16:12;;;;;;;35.13;18.60;;;;;;;7.65;100.00;101269.84;5036473;28;19919;-76
2021/11/17 03:19:03;;;;;;;34.67;17.90;;;;;;;7.66;100.00;101271.56;5026718;28;20061;-76
2021/11/17 03:21:47;;;;;;;34.47;19.48;;;;;;;7.65;100.00;101275.38;5036679;28;20053;-76
2021/11/17 03:25:08;;;;;;;35.47;18.60;;;;;;;7.70;100.00;101272.69;5033957;28;20037;-76
2021/11/17 03:27:57;;;;;;;36.05;18.52;;;;;;;7.70;100.00;101282.91;5013068;28;20045;-76
2021/11/17 03:30:26;;;;;;;30.65;17.33;;;;;;;7.70;100.00;101271.88;5036471;28;20553;-76
2021/11/17 03:33:26;;;;;;;31.90;17.17;;;;;;;7.70;100.00;101275.47;5034983;28;20033;-76
2021/11/17 03:35:52;;;;;;;32.40;17.30;;;;;;;7.72;100.00;101281.56;5034112;28;20029;-76
2021/11/17 03:38:24;;;;;;;29.77;16.95;;;;;;;7.72;100.00;101275.22;5031377;28;20045;-75
2021/11/17 03:41:11;;;;;;;29.10;16.40;;;;;;;7.74;100.00;101273.84;5046827;28;20044;-76
2021/11/17 03:44:11;;;;;;;31.63;16.42;;;;;;;7.74;100.00;101282.13;5024608;28;20485;-76
2021/11/17 03:46:51;;;;;;;28.98;16.98;;;;;;;7.74;100.00;101279.38;5034049;28;20033;-75
2021/11/17 03:49:45;;;;;;;26.52;15.68;;;;;;;7.75;100.00;101278.28;5033658;28;20057;-76
2021/11/17 03:52:19;;;;;;;;;;;;;;;7.75;100.00;101281.06;5036626;28;20030;-76
2021/11/17 03:55:12;;;;;;;30.02;14.88;;;;;;;7.75;100.00;101275.53;5040043;28;19944;-75
2021/11/17 03:58:15;;;;;;;26.40;15.23;;;;;;;7.77;100.00;101266.97;5033908;28;20449;-76
2021/11/17 04:01:17;;;;;;;27.67;15.13;;;;;;;7.75;100.00;101269.16;5033242;28;20033;-76
2021/11/17 04:03:45;;;;;;;28.30;15.03;;;;;;;7.73;100.00;101269.41;5033749;28;20040;-76
2021/11/17 04:06:26;;;;;;;26.08;13.85;;;;;;;7.73;100.00;101266.66;5033781;28;20329;-76
2021/11/17 04:09:27;;;;;;;26.02;14.73;;;;;;;7.70;100.00;101267.16;5034918;28;20133;-75
2021/11/17 04:12:16;;;;;;;26.55;14.40;;;;;;;7.68;100.00;101274.03;5032495;28;20045;-76
2021/11/17 04:14:45;;;;;;;27.98;14.27;;;;;;;7.70;100.00;101282.91;5032787;28;20029;-76
2021/11/17 04:17:55;;;;;;;24.08;14.30;;;;;;;7.68;100.00;101279.56;5035835;28;20037;-76
2021/11/17 04:20:42;;;;;;;24.48;14.80;;;;;;;7.68;100.00;101285.09;5028120;28;20041;-76
2021/11/17 04:23:48;;;;;;;25.42;14.18;;;;;;;7.66;100.00;101293.66;5033757;28;20052;-76
2021/11/17 04:26:23;;;;;;;25.60;14.65;;;;;;;7.65;100.00;101291.97;5012085;28;20054;-76
2021/11/17 04:29:17;;;;;;;24.67;13.95;;;;;;;7.65;100.00;101286.44;5034766;28;20390;-76
2021/11/17 04:32:01;;;;;;;;;;;;;;;7.65;100.00;101291.97;5034097;28;20033;-76
2021/11/17 04:34:51;;;;;;;22.70;12.95;;;;;;;7.64;100.00;101295.00;5033162;28;19917;-76
2021/11/17 04:37:26;;;;;;;25.13;14.05;;;;;;;7.63;100.00;101299.69;5033897;28;20034;-76
2021/11/17 04:40:26;;;;;;;22.50;12.70;;;;;;;7.63;100.00;101294.16;5034720;28;20389;-75
2021/11/17 04:43:20;;;;;;;22.45;12.43;;;;;;;7.61;100.00;101291.66;5032896;28;20494;-75
2021/11/17 04:45:55;;;;;;;22.30;13.15;;;;;;;7.59;100.00;101290.22;5033836;28;20038;-76
2021/11/17 04:48:32;;;;;;;22.55;12.48;;;;;;;7.56;100.00;101297.09;5034638;28;20041;-76
2021/11/17 04:51:05;;;;;;;20.27;12.10;;;;;;;7.57;100.00;101312.59;5030529;28;20038;-76
2021/11/17 04:53:58;;;;;;;18.52;11.90;;;;;;;7.56;100.00;101304.56;5036371;28;20036;-76
2021/11/17 04:56:42;;;;;;;20.23;11.60;;;;;;;7.55;100.00;101303.75;5029843;28;20176;-76
2021/11/17 04:59:10;;;;;;;19.33;12.02;;;;;;;7.50;100.00;101305.59;5029718;28;20481;-76
2021/11/17 05:01:57;;;;;;;19.73;11.93;;;;;;;7.47;100.00;101304.16;5036224;28;20033;-76
2021/11/17 05:04:30;;;;;;;17.83;11.38;;;;;;;7.46;100.00;101299.72;5036097;28;20045;-76
2021/11/17 05:06:56;;;;;;;19.40;11.82;;;;;;;7.46;100.00;101301.66;5037126;28;20040;-76
2021/11/17 05:09:27;;;;;;;23.45;12.27;;;;;;;7.45;100.00;101302.75;5038265;28;20033;-76
2021/11/17 05:12:01;;;;;;;20.65;11.55;;;;;;;7.40;100.00;101309.03;5038457;28;20489;-76
2021/11/17 05:14:42;;;;;;;17.58;10.60;;;;;;;7.35;100.00;101320.88;5031409;28;20068;-76
2021/11/17 05:17:25;;;;;;;19.20;11.07;;;;;;;7.31;100.00;101318.84;5027614;28;20087;-76
2021/11/17 05:20:04;;;;;;;18.73;10.95;;;;;;;7.28;100.00;101313.81;5051432;28;20060;-76
2021/11/17 05:22:57;;;;;;;21.42;11.63;;;;;;;7.22;100.00;101315.69;5035704;28;20505;-76
2021/11/17 05:25:56;;;;;;;18.10;11.30;;;;;;;7.19;100.00;101320.84;5038103;28;20079;-76
2021/11/17 05:28:55;;;;;;;20.70;11.38;;;;;;;7.08;100.00;101325.41;5036489;28;20571;-76
2021/11/17 05:31:52;;;;;;;17.40;10.85;;;;;;;7.05;100.00;101325.88;5053862;28;20448;-76
2021/11/17 05:34:39;;;;;;;18.40;11.18;;;;;;;7.01;100.00;101331.06;5037711;28;20041;-76
2021/11/17 05:37:46;;;;;;;18.70;10.73;;;;;;;6.91;100.00;101326.22;5033842;28;20557;-76
2021/11/17 05:40:34;;;;;;;18.75;11.07;;;;;;;6.89;100.00;101322.88;5022552;28;20052;-76
2021/11/17 05:43:12;;;;;;;18.30;10.77;;;;;;;6.86;100.00;101317.00;5038299;28;21406;-76
2021/11/17 05:45:47;;;;;;;18.58;10.85;;;;;;;6.81;100.00;101323.28;5049808;28;20033;-76
2021/11/17 05:48:13;;;;;;;16.98;10.50;;;;;;;6.73;100.00;101312.63;5035193;28;20029;-76
2021/11/17 05:51:10;;;;;;;19.75;11.77;;;;;;;6.66;100.00;101317.50;5038223;28;20379;-76
2021/11/17 05:53:56;;;;;;;21.58;11.98;;;;;;;6.61;100.00;101317.38;5058391;28;20508;-76
2021/11/17 05:56:44;;;;;;;19.63;11.57;;;;;;;6.59;100.00;101311.28;5037179;28;20444;-76
2021/11/17 05:59:25;;;;;;;18.85;10.95;;;;;;;6.56;100.00;101312.59;5033053;28;20044;-77
2021/11/17 06:01:57;;;;;;;19.65;11.68;;;;;;;6.51;100.00;101308.91;5038529;28;20044;-77
2021/11/17 06:04:22;;;;;;;19.65;11.32;;;;;;;6.48;100.00;101311.06;5033436;28;20025;-76
2021/11/17 06:06:47;;;;;;;19.13;11.27;;;;;;;6.46;100.00;101317.91;5038101;28;20473;-76
2021/11/17 06:09:12;;;;;;;18.90;11.00;;;;;;;6.45;100.00;101314.34;5025142;28;20029;-76
2021/11/17 06:11:52;;;;;;;18.90;11.20;;;;;;;6.35;100.00;101314.16;5035999;28;20041;-76
2021/11/17 06:14:22;;;;;;;18.13;10.82;;;;;;;6.32;100.00;101311.88;5018258;28;20030;-76
2021/11/17 06:16:56;;;;;;;23.67;11.63;;;;;;;6.30;100.00;101321.50;5037016;28;20034;-76
2021/11/17 06:19:24;;;;;;;18.75;11.10;;;;;;;6.26;100.00;101316.44;5018972;28;20396;-76
2021/11/17 06:21:49;;;;;;;21.10;12.05;;;;;;;6.27;100.00;101320.06;5035551;28;20037;-76
2021/11/17 06:24:16;;;;;;;21.67;11.40;;;;;;;6.27;100.00;101325.59;5035597;28;20087;-76
2021/11/17 06:26:43;;;;;;;18.38;11.55;;;;;;;6.21;100.00;101318.25;5033459;28;20101;-76
2021/11/17 06:29:19;;;;;;;21.02;11.68;;;;;;;6.23;100.00;101329.91;5019131;28;20105;-76
2021/11/17 06:31:44;;;;;;;19.55;11.15;;;;;;;6.19;100.00;101323.22;5034890;28;20029;-76
2021/11/17 06:34:38;;;;;;;19.50;11.52;;;;;;;6.21;100.00;101329.28;5035420;28;20037;-76
2021/11/17 06:37:06;;;;;;;20.90;11.60;;;;;;;6.13;100.00;101335.19;5037500;28;20033;-76
2021/11/17 06:39:31;;;;;;;17.50;10.43;;;;;;;6.11;100.00;101343.72;5047843;28;20099;-75
2021/11/17 06:41:58;;;;;;;21.20;11.27;;;;;;;6.13;100.00;101346.22;5019255;28;20041;-75
2021/11/17 06:44:23;;;;;;;18.42;10.90;;;;;;;6.09;100.00;101345.88;5034371;28;20042;-76
2021/11/17 06:46:50;;;;;;;19.17;11.00;;;;;;;6.07;100.00;101341.69;5036057;28;20029;-76
2021/11/17 06:49:15;;;;;;;18.58;11.35;;;;;;;6.06;100.00;101340.03;5014360;28;20029;-76
2021/11/17 06:51:41;;;;;;;19.27;10.85;;;;;;;6.09;100.00;101350.56;5037800;28;20052;-76
2021/11/17 06:54:06;;;;;;;18.88;10.95;;;;;;;6.06;100.00;101357.41;5022734;28;20025;-76
2021/11/17 06:56:32;;;;;;;21.45;12.05;;;;;;;6.09;100.00;101358.84;5034675;28;20033;-76
2021/11/17 06:58:57;;;;;;;19.83;11.50;;;;;;;6.09;100.00;101376.22;5030356;28;20033;-76
2021/11/17 07:01:24;;;;;;;20.17;11.27;;;;;;;6.07;100.00;101364.59;5022514;28;20052;-76
2021/11/17 07:03:49;;;;;;;19.05;11.23;;;;;;;6.09;100.00;101369.88;5034877;28;20040;-76
2021/11/17 07:06:15;;;;;;;20.25;11.38;;;;;;;6.09;100.00;101372.63;5036460;28;20052;-76
2021/11/17 07:08:40;;;;;;;18.38;11.50;;;;;;;6.09;100.00;101372.63;5016870;28;20390;-77
2021/11/17 07:11:06;;;;;;;19.70;11.43;;;;;;;6.11;100.00;101384.28;5002573;28;20029;-76
2021/11/17 07:13:31;;;;;;;19.00;10.70;;;;;;;6.13;100.00;101384.84;5033756;28;20029;-76
2021/11/17 07:15:57;;;;;;;17.38;10.40;;;;;;;6.14;100.00;101392.88;5032962;28;20025;-76
2021/11/17 07:18:23;;;;;;;19.27;10.70;;;;;;;6.18;100.00;101404.25;5004211;28;20029;-75
2021/11/17 07:20:48;;;;;;;20.27;10.60;;;;;;;6.19;100.00;101411.47;5035140;28;20040;-74
2021/11/17 07:23:15;;;;;;;17.75;10.90;;;;;;;6.24;100.00;101406.91;5034485;28;20049;-74
2021/11/17 07:25:40;;;;;;;20.65;11.05;;;;;;;6.25;100.00;101407.75;5032724;28;20089;-73
2021/11/17 07:28:06;;;;;;;19.73;10.75;;;;;;;6.28;100.00;101403.66;5036743;28;20665;-74
2021/11/17 07:30:35;;;;;;;18.83;11.10;;;;;;;6.31;100.00;101406.75;5035450;28;20056;-74
2021/11/17 07:33:02;;;;;;;19.75;11.02;;;;;;;6.35;100.00;101407.09;5035403;28;20029;-73
2021/11/17 07:35:28;;;;;;;19.02;10.77;;;;;;;6.37;100.00;101408.53;5034362;28;20033;-74
2021/11/17 07:37:53;;;;;;;23.90;10.43;;;;;;;6.40;100.00;101413.56;5002134;28;20037;-74
2021/11/17 07:40:19;;;;;;;20.35;10.98;;;;;;;6.42;100.00;101416.91;5016060;28;20048;-74
2021/11/17 07:42:44;;;;;;;17.60;10.30;;;;;;;6.45;100.00;101421.94;5036596;28;20093;-74
2021/11/17 07:45:12;;;;;;;17.88;10.68;;;;;;;6.48;100.00;101418.69;5064350;28;20580;-74
2021/11/17 07:47:37;;;;;;;15.90;10.13;;;;;;;6.51;100.00;101425.66;5037023;28;20040;-74
2021/11/17 07:50:05;;;;;;;20.75;9.95;;;;;;;6.53;100.00;101437.28;5025166;28;20033;-75
2021/11/17 07:52:31;;;;;;;18.02;9.43;;;;;;;6.57;100.00;101443.97;5015757;28;20028;-74
2021/11/17 07:54:57;;;;;;;16.80;9.45;;;;;;;6.60;100.00;101446.28;5002797;28;20445;-74
2021/11/17 07:57:22;;;;;;;17.23;10.27;;;;;;;6.62;100.00;101449.63;5014714;28;20032;-74
2021/11/17 07:59:48;;;;;;;15.25;9.23;;;;;;;6.65;100.00;101445.53;5017430;28;20045;-74
2021/11/17 08:02:14;;;;;;;17.55;9.65;;;;;;;6.67;100.00;101452.50;5034484;28;20040;-74
2021/11/17 08:04:41;;;;;;;15.70;9.52;;;;;;;6.72;100.00;101455.34;5018500;28;20035;-74
2021/11/17 08:07:10;;;;;;;15.77;8.95;;;;;;;6.76;100.00;101460.38;5003841;28;20083;-74
2021/11/17 08:09:35;;;;;;;17.23;9.77;;;;;;;6.78;100.00;101456.28;5001010;28;20486;-74
2021/11/17 08:12:01;;;;;;;16.63;8.88;;;;;;;6.82;100.00;101457.47;5002808;28;20121;-74
2021/11/17 08:14:27;;;;;;;14.10;8.77;;;;;;;6.86;100.00;101464.19;5030766;28;20025;-74
2021/11/17 08:16:52;;;;;;;13.70;8.20;;;;;;;6.89;100.00;101458.16;5016883;28;20025;-74
2021/11/17 08:19:18;;;;;;;18.40;9.43;;;;;;;6.94;100.00;101457.44;5023694;28;20029;-74
2021/11/17 08:21:43;;;;;;;12.95;8.32;;;;;;;6.97;100.00;101465.22;5001577;28;20045;-74
2021/11/17 08:24:09;;;;;;;13.75;8.32;;;;;;;7.02;100.00;101470.00;5016928;28;20037;-74
2021/11/17 08:26:34;;;;;;;13.55;8.25;;;;;;;7.06;100.00;101466.50;5000598;28;20032;-74
2021/11/17 08:29:00;;;;;;;13.88;8.45;;;;;;;7.10;100.00;101464.94;4999212;28;20040;-75
2021/11/17 08:31:26;;;;;;;14.10;8.00;;;;;;;7.16;100.00;101476.91;5031843;28;20036;-74
2021/11/17 08:33:52;;;;;;;13.30;7.78;;;;;;;7.20;100.00;101480.84;5024634;28;20022;-74
2021/11/17 08:36:18;;;;;;;12.82;7.07;;;;;;;7.25;100.00;101482.88;5034060;28;20037;-74
2021/11/17 08:38:43;;;;;;;15.50;8.05;;;;;;;7.29;100.00;101481.28;5017058;28;20030;-74
2021/11/17 08:41:10;;;;;;;13.07;7.97;;;;;;;7.34;100.00;101478.63;5022235;28;20029;-74
2021/11/17 08:43:36;;;;;;;15.85;7.90;;;;;;;7.38;100.00;101491.69;5036057;28;20024;-74
2021/11/17 08:46:02;;;;;;;12.60;7.93;;;;;;;7.45;100.00;101490.69;5040067;28;20394;-75
2021/11/17 08:48:30;;;;;;;13.07;7.50;;;;;;;7.49;100.00;101492.69;5037036;28;20044;-74
2021/11/17 08:50:56;;;;;;;13.52;7.78;;;;;;;7.54;100.00;101497.47;5032800;28;20026;-74
2021/11/17 08:53:24;;;;;;;13.23;7.55;;;;;;;7.60;100.00;101499.25;5020628;28;20029;-74
2021/11/17 08:55:50;;;;;;;13.23;7.95;;;;;;;7.64;100.00;101500.44;5011188;28;20031;-74
2021/11/17 08:58:16;;;;;;;12.77;7.20;;;;;;;7.68;100.00;101501.59;5003144;28;20026;-75
2021/11/17 09:00:42;;;;;;;11.23;7.65;;;;;;;7.73;100.00;101503.63;5002154;28;20033;-74
2021/11/17 09:03:07;;;;;;;13.13;8.07;;;;;;;7.75;100.00;101502.28;5029299;28;20026;-74
2021/11/17 09:05:35;;;;;;;12.68;7.43;;;;;;;7.81;100.00;101501.25;5031602;28;20480;-74
2021/11/17 09:08:03;;;;;;;14.77;8.30;;;;;;;7.85;100.00;101504.34;5026253;28;20025;-74
2021/11/17 09:10:30;;;;;;;10.48;6.82;;;;;;;7.89;100.00;101511.06;5018142;28;20060;-74
2021/11/17 09:12:56;;;;;;;13.63;7.40;;;;;;;7.94;100.00;101502.00;5018535;28;20381;-74
2021/11/17 09:15:23;;;;;;;11.88;7.15;;;;;;;8.00;100.00;101504.63;5038092;28;20036;-74
2021/11/17 09:17:49;;;;;;;11.18;6.72;;;;;;;8.04;100.00;101510.47;5032959;28;20026;-74
2021/11/17 09:20:15;;;;;;;11.70;7.25;;;;;;;8.10;100.00;101514.16;5003546;28;20026;-74
2021/11/17 09:22:41;;;;;;;12.30;7.05;;;;;;;8.16;100.00;101522.31;5008517;28;20037;-74
2021/11/17 09:25:07;;;;;;;11.00;6.63;;;;;;;8.22;100.00;101529.59;5007953;28;20055;-74
2021/11/17 09:27:33;;;;;;;12.10;6.40;;;;;;;8.28;100.00;101523.03;5011590;28;20037;-74
2021/11/17 09:29:59;;;;;;;10.65;6.85;;;;;;;8.33;100.00;101525.03;5000435;28;20117;-74
2021/11/17 09:32:24;;;;;;;10.90;6.82;;;;;;;8.43;100.00;101527.13;5028888;28;20054;-74
2021/11/17 09:34:50;;;;;;;13.52;7.10;;;;;;;8.51;100.00;101523.94;5003993;28;20421;-74
2021/11/17 09:37:15;;;;;;;12.13;6.47;;;;;;;8.58;100.00;101524.59;4987192;28;20022;-74
2021/11/17 09:39:42;;;;;;;10.48;6.35;;;;;;;8.67;100.00;101525.00;5001601;28;20021;-74
2021/11/17 09:42:08;;;;;;;11.30;6.55;;;;;;;8.72;100.00;101520.34;4986440;28;20083;-74
2021/11/17 09:44:40;;;;;;;12.13;6.45;;;;;;;8.81;100.00;101520.75;5016636;28;20056;-74
2021/11/17 09:47:06;;;;;;;12.75;6.60;;;;;;;8.90;100.00;101516.41;5003701;28;20025;-74
2021/11/17 09:49:47;;;;;;;11.88;6.20;;;;;;;9.01;100.00;101534.00;5019632;28;20075;-74
2021/11/17 09:52:20;;;;;;;12.10;5.95;;;;;;;9.09;100.00;101533.53;5015703;28;20030;-74
2021/11/17 09:54:48;;;;;;;12.68;7.15;;;;;;;9.23;100.00;101527.59;5026636;28;20032;-74
2021/11/17 09:57:26;;;;;;;10.70;6.75;;;;;;;9.35;100.00;101536.59;5005511;28;20405;-74
2021/11/17 10:00:05;;;;;;;13.68;7.18;;;;;;;9.45;100.00;101535.88;5022386;28;20113;-75
2021/11/17 10:02:37;;;;;;;11.95;6.95;;;;;;;9.55;100.00;101525.69;4994233;28;20022;-74
2021/11/17 10:11:22;;;;;;;11.40;6.80;;;;;;;9.84;100.00;101536.53;5024977;28;20120;-74
2021/11/17 10:14:10;;;;;;;13.90;6.28;;;;;;;9.90;100.00;101538.25;5020664;28;20028;-74
2021/11/17 10:16:35;;;;;;;10.15;5.80;;;;;;;9.95;100.00;101537.47;5018957;28;20112;-74
2021/11/17 10:19:20;;;;;;;8.55;5.70;;;;;;;10.00;100.00;101537.47;5003033;28;20048;-74
2021/11/17 10:21:46;;;;;;;11.10;5.85;;;;;;;10.06;100.00;101537.25;5015968;28;20565;-74
2021/11/17 10:24:17;;;;;;;11.15;5.75;;;;;;;10.10;100.00;101542.28;4995993;28;20033;-74
2021/11/17 10:26:52;;;;;;;9.82;5.88;;;;;;;10.16;100.00;101535.66;5001968;28;20033;-74
2021/11/17 10:29:40;;;;;;;11.63;6.18;;;;;;;10.20;100.00;101548.75;5017904;28;20057;-74
2021/11/17 10:32:39;;;;;;;8.90;4.75;;;;;;;10.25;100.00;101534.03;5001021;28;20061;-74
2021/11/17 10:35:24;;;;;;;9.68;6.15;;;;;;;10.29;100.00;101536.06;5008848;28;20045;-74
2021/11/17 10:38:23;;;;;;;10.05;5.90;;;;;;;10.39;100.00;101540.88;4987022;28;20496;-74
2021/11/17 10:41:00;;;;;;;10.75;6.00;;;;;;;10.43;100.00;101535.59;5035746;28;20037;-74
2021/11/17 10:43:29;;;;;;;10.73;5.57;;;;;;;10.48;100.00;101544.81;5014124;28;20029;-74
2021/11/17 10:46:17;;;;;;;8.88;5.30;;;;;;;10.55;100.00;101546.50;4990520;28;20124;-74
2021/11/17 10:48:59;;;;;;;10.75;5.50;;;;;;;10.58;100.00;101538.47;5023384;28;20056;-74
2021/11/17 10:51:32;;;;;;;10.27;5.73;;;;;;;10.60;100.00;101541.81;4992646;28;20040;-74
2021/11/17 10:53:59;;;;;;;12.07;6.05;;;;;;;10.65;100.00;101547.41;5005854;28;20052;-74
2021/11/17 10:56:26;;;;;;;8.43;5.38;;;;;;;10.67;100.00;101547.13;5015475;28;20029;-74
2021/11/17 10:58:53;;;;;;;9.32;4.40;;;;;;;10.69;100.00;101547.69;5012702;28;20171;-74
2021/11/17 11:01:36;;;;;;;13.85;5.97;;;;;;;10.72;100.00;101539.66;5034049;28;20108;-74
2021/11/17 11:04:24;;;;;;;9.63;5.82;;;;;;;10.74;100.00;101536.59;5016184;28;20482;-74
2021/11/17 11:07:03;;;;;;;10.18;5.10;;;;;;;10.76;100.00;101536.34;5018966;28;20081;-71
2021/11/17 11:09:41;;;;;;;10.25;5.03;;;;;;;10.79;100.00;101539.41;5024075;28;20041;-72
2021/11/17 11:12:07;;;;;;;8.55;5.13;;;;;;;10.80;100.00;101529.97;5034198;28;20034;-71
2021/11/17 11:14:37;;;;;;;9.57;5.18;;;;;;;10.83;100.00;101534.97;5014527;28;20025;-72
2021/11/17 11:17:30;;;;;;;8.48;5.20;;;;;;;10.87;100.00;101538.06;5017427;28;20025;-72
2021/11/17 11:20:14;;;;;;;;;;;;;;;10.90;100.00;101538.34;5026152;28;20045;-72
2021/11/17 11:23:02;;;;;;;8.50;4.88;;;;;;;10.98;100.00;101531.44;5043189;28;19921;-71
2021/11/17 11:25:37;;;;;;;7.20;4.22;;;;;;;11.02;100.00;101526.16;5034822;28;20029;-72
2021/11/17 11:28:21;;;;;;;5.95;4.07;;;;;;;11.06;100.00;101528.16;5045830;28;20045;-71
2021/11/17 11:31:06;;;;;;;10.80;5.53;;;;;;;11.11;100.00;101528.13;5047356;28;20029;-71
2021/11/17 11:33:33;;;;;;;9.45;4.15;;;;;;;11.15;100.00;101531.22;5017087;28;20028;-72
2021/11/17 11:36:10;;;;;;;7.75;4.53;;;;;;;11.20;100.00;101531.25;5017345;28;20093;-72
2021/11/17 11:38:43;;;;;;;10.60;6.70;;;;;;;11.25;100.00;101533.19;5033700;28;20029;-72
2021/11/17 11:41:35;;;;;;;7.45;5.28;;;;;;;11.32;100.00;101542.13;5002645;28;20034;-74
2021/11/17 11:44:27;;;;;;;9.00;5.38;;;;;;;11.35;100.00;101547.97;5005163;28;20040;-74
2021/11/17 11:46:59;;;;;;;9.27;4.82;;;;;;;11.40;100.00;101531.28;5034663;28;20041;-72
2021/11/17 11:49:41;;;;;;;6.40;4.22;;;;;;;11.42;100.00;101531.00;5032949;28;20116;-71
2021/11/17 11:52:19;;;;;;;9.77;5.28;;;;;;;11.44;100.00;101534.34;5021721;28;20092;-71
2021/11/17 11:54:50;;;;;;;7.93;4.65;;;;;;;11.48;100.00;101527.13;5033431;28;20037;-72
2021/11/17 11:57:34;;;;;;;6.28;4.35;;;;;;;11.50;100.00;101532.41;5025850;28;20042;-72
2021/11/17 12:00:01;;;;;;;6.05;4.25;;;;;;;11.50;100.00;101538.81;5016861;28;20029;-73
2021/11/17 12:02:27;;;;;;;8.18;3.90;;;;;;;11.53;100.00;101541.06;5019608;28;20108;-73
2021/11/17 12:05:00;;;;;;;11.07;4.10;;;;;;;11.54;100.00;101533.56;5001487;28;20179;-72
2021/11/17 12:07:47;;;;;;;6.75;4.45;;;;;;;11.56;100.00;101525.75;5017176;28;20375;-72
2021/11/17 12:10:19;;;;;;;6.70;4.00;;;;;;;11.57;100.00;101541.34;5017214;28;20109;-74
2021/11/17 12:12:45;;;;;;;7.63;4.72;;;;;;;11.59;100.00;101544.69;5033652;28;20453;-73
2021/11/17 12:15:35;;;;;;;6.70;4.10;;;;;;;11.59;100.00;101537.19;4996028;28;20038;-73
2021/11/17 12:18:18;;;;;;;6.35;4.05;;;;;;;11.62;100.00;101533.84;5000205;28;20045;-72
2021/11/17 12:20:47;;;;;;;5.78;3.97;;;;;;;11.64;100.00;101533.53;5034061;28;20044;-74
2021/11/17 12:23:28;;;;;;;7.80;3.50;;;;;;;11.67;100.00;101537.72;5010327;28;20054;-71
2021/11/17 12:26:10;;;;;;;8.20;3.40;;;;;;;11.68;100.00;101515.19;4990353;28;20063;-72
2021/11/17 12:28:49;;;;;;;5.40;3.20;;;;;;;11.71;100.00;101511.03;5001328;28;20033;-72
2021/11/17 12:31:23;;;;;;;5.25;3.15;;;;;;;11.74;100.00;101514.09;4995368;28;20030;-74
2021/11/17 12:33:50;;;;;;;4.43;2.80;;;;;;;11.76;100.00;101509.09;4999273;28;20555;-76
2021/11/17 12:36:20;;;;;;;4.05;2.75;;;;;;;11.79;100.00;101514.09;5014785;28;20568;-71
2021/11/17 12:38:46;;;;;;;4.75;2.70;;;;;;;11.82;100.00;101510.75;5015582;28;20037;-73
2021/11/17 12:41:32;;;;;;;4.65;2.38;;;;;;;11.85;100.00;101513.00;5000944;28;20045;-72
2021/11/17 12:44:07;;;;;;;4.47;2.78;;;;;;;11.87;100.00;101514.66;5017047;28;20026;-71
2021/11/17 12:46:43;;;;;;;5.70;3.63;;;;;;;11.91;100.00;101510.22;5015416;28;20025;-73
2021/11/17 12:49:20;;;;;;;3.78;2.95;;;;;;;11.96;100.00;101516.63;5022562;28;20041;-73
2021/11/17 12:51:58;;;;;;;7.30;4.13;;;;;;;12.01;100.00;101510.22;5015594;28;20099;-74
2021/11/17 12:54:35;;;;;;;4.93;3.33;;;;;;;12.03;100.00;101500.47;5017782;28;20030;-73
2021/11/17 12:57:25;;;;;;;5.40;3.67;;;;;;;12.08;100.00;101507.97;4995033;28;20025;-72
2021/11/17 13:00:19;;;;;;;3.85;3.17;;;;;;;12.10;100.00;101511.34;5019582;28;20029;-72
2021/11/17 13:02:51;;;;;;;5.38;3.90;;;;;;;12.15;100.00;101502.97;5029622;28;20504;-71
2021/11/17 13:05:31;;;;;;;4.50;3.03;;;;;;;12.19;100.00;101506.84;5014179;28;20079;-72
2021/11/17 13:08:07;;;;;;;4.28;3.28;;;;;;;12.22;100.00;101511.03;5031038;28;20481;-73
2021/11/17 13:10:39;;;;;;;7.32;3.20;;;;;;;12.31;100.00;101509.34;5022633;28;20041;-74
2021/11/17 13:13:45;;;;;;;6.22;2.97;;;;;;;12.34;100.00;101514.38;5004031;28;20026;-72
2021/11/17 13:16:19;;;;;;;5.38;2.60;;;;;;;12.38;100.00;101511.84;5013690;28;20464;-71
2021/11/17 13:18:44;;;;;;;6.40;2.92;;;;;;;12.40;100.00;101506.84;5003370;28;20036;-71
2021/11/17 13:21:22;;;;;;;4.85;2.38;;;;;;;12.44;100.00;101502.34;5029453;28;20045;-71
2021/11/17 13:23:56;;;;;;;5.07;2.72;;;;;;;12.47;100.00;101504.56;5005955;28;20029;-71
2021/11/17 13:26:35;;;;;;;5.90;2.40;;;;;;;12.49;100.00;101494.00;5035812;28;20614;-71
2021/11/17 13:29:27;;;;;;;5.40;2.45;;;;;;;12.52;100.00;101516.53;5020013;28;20449;-71
2021/11/17 13:32:16;;;;;;;7.50;3.10;;;;;;;12.54;100.00;101513.47;5037193;28;20029;-71
2021/11/17 13:34:44;;;;;;;3.97;2.28;;;;;;;12.53;100.00;101517.38;5025296;28;20081;-71
2021/11/17 13:37:40;;;;;;;6.78;2.15;;;;;;;12.52;100.00;101515.72;5032332;28;20025;-70
2021/11/17 13:40:17;;;;;;;4.90;2.17;;;;;;;12.49;100.00;101517.09;5014345;28;20453;-71
2021/11/17 13:42:43;;;;;;;6.55;2.10;;;;;;;12.50;100.00;101512.38;5031924;28;20064;-71
2021/11/17 13:45:21;;;;;;;3.35;1.80;;;;;;;12.49;100.00;101516.28;5017447;28;20486;-72
2021/11/17 13:47:47;;;;;;;4.55;1.67;;;;;;;12.51;100.00;101525.19;5006280;28;20516;-71
2021/11/17 13:50:13;;;;;;;2.70;1.60;;;;;;;12.43;100.00;101529.38;5025916;28;20034;-71
2021/11/17 13:52:41;;;;;;;3.63;1.55;;;;;;;12.38;100.00;101540.53;5002213;28;20029;-70
2021/11/17 13:55:10;;;;;;;6.72;1.90;;;;;;;12.28;100.00;101544.16;5004060;28;20037;-71
2021/11/17 13:57:36;;;;;;;10.25;2.40;;;;;;;12.18;100.00;101543.34;4996950;28;20061;-71
2021/11/17 14:00:04;;;;;;;13.45;3.25;;;;;;;12.04;100.00;101540.28;4984819;28;20455;-71
2021/11/17 14:02:30;;;;;;;12.93;3.03;;;;;;;12.04;100.00;101537.50;5002742;28;20037;-73
2021/11/17 14:04:55;;;;;;;12.18;2.60;;;;;;;11.99;100.00;101532.78;4987154;28;20087;-73
2021/11/17 14:07:21;;;;;;;10.32;2.70;;;;;;;11.92;100.00;101539.72;5002363;28;20029;-72
2021/11/17 14:09:47;;;;;;;13.27;2.97;;;;;;;11.79;100.00;101532.75;5003861;28;20034;-71
2021/11/17 14:12:13;;;;;;;10.90;2.20;;;;;;;11.70;100.00;101535.25;4999661;28;20091;-74
2021/11/17 14:14:38;;;;;;;10.15;1.80;;;;;;;11.63;100.00;101537.44;5007031;28;20029;-73
2021/11/17 14:17:05;;;;;;;9.48;2.33;;;;;;;11.57;100.00;101533.00;5031593;28;20029;-74
2021/11/17 14:19:30;;;;;;;7.47;1.58;;;;;;;11.55;100.00;101527.69;5036132;28;20030;-72
2021/11/17 14:21:57;;;;;;;8.80;2.30;;;;;;;11.53;100.00;101532.72;5002295;28;20525;-73
2021/11/17 14:24:22;;;;;;;13.45;2.25;;;;;;;11.47;100.00;101532.97;4987987;28;20053;-73